Woodside, Delaware
Current Conditions -  °F | °C
As of 11:58 PM on Saturday 22 Nov 2014 (Local Time) from KDOV Reporting Station
Overcast Overcast  
Wind Chill: 35°   Ceiling: 12000
Heat Index: 42°   Visibility: 10mi
Dew Point: 25°   Wind: 12mph
Humidity: 52%   Direction: 200°SSW
Pressure: 30.24"   Gusts: NA
Location:  39.07°N, 75.57°W
Report Text: KDOV 230458Z AUTO 20010KT 10SM OVC120 06/M04 A3024 RMK AO2 SLP244 T00551038 400881064
Loading
Personal Weather Stations






























Interactive Weather Map New forecast layout! Learn more

10-Day Weather Forecast

Advertisements
Track Severe Weather on mobile